sensor_id;sensor_type;location;lat;lon;timestamp;pressure;altitude;pressure_sealevel;temperature;humidity
66273;BME280;58450;52.150;4.466;2023-01-29T00:02:00;102996.25;;;3.92;100.00
66273;BME280;58450;52.150;4.466;2023-01-29T00:04:28;102990.66;;;3.96;100.00
66273;BME280;58450;52.150;4.466;2023-01-29T00:06:56;102990.75;;;3.95;100.00
66273;BME280;58450;52.150;4.466;2023-01-29T00:09:23;102994.91;;;3.84;100.00
66273;BME280;58450;52.150;4.466;2023-01-29T00:11:51;102994.97;;;3.83;100.00
66273;BME280;58450;52.150;4.466;2023-01-29T00:14:19;102988.19;;;4.08;100.00
66273;BME280;58450;52.150;4.466;2023-01-29T00:16:47;102983.81;;;4.07;100.00
66273;BME280;58450;52.150;4.466;2023-01-29T00:19:15;102975.13;;;4.03;100.00
66273;BME280;58450;52.150;4.466;2023-01-29T00:21:42;102980.09;;;4.09;100.00
66273;BME280;58450;52.150;4.466;2023-01-29T00:24:10;102979.09;;;4.12;100.00
66273;BME280;58450;52.150;4.466;2023-01-29T00:26:38;102985.19;;;4.14;100.00
66273;BME280;58450;52.150;4.466;2023-01-29T00:29:07;102981.56;;;4.15;100.00
66273;BME280;58450;52.150;4.466;2023-01-29T00:31:34;102966.88;;;4.08;100.00
66273;BME280;58450;52.150;4.466;2023-01-29T00:34:03;102967.56;;;3.81;100.00
66273;BME280;58450;52.150;4.466;2023-01-29T00:36:31;102964.25;;;3.77;100.00
66273;BME280;58450;52.150;4.466;2023-01-29T00:38:59;102957.56;;;3.70;100.00
66273;BME280;58450;52.150;4.466;2023-01-29T00:41:30;102951.59;;;3.81;100.00
66273;BME280;58450;52.150;4.466;2023-01-29T00:44:16;102948.50;;;3.73;100.00
66273;BME280;58450;52.150;4.466;2023-01-29T00:47:02;102951.97;;;4.20;100.00
66273;BME280;58450;52.150;4.466;2023-01-29T00:49:51;102946.81;;;4.17;100.00
66273;BME280;58450;52.150;4.466;2023-01-29T00:52:19;102943.69;;;4.24;100.00
66273;BME280;58450;52.150;4.466;2023-01-29T00:54:54;102947.03;;;4.28;100.00
66273;BME280;58450;52.150;4.466;2023-01-29T00:57:23;102940.53;;;4.18;100.00
66273;BME280;58450;52.150;4.466;2023-01-29T00:59:53;102946.81;;;4.17;100.00
66273;BME280;58450;52.150;4.466;2023-01-29T01:02:21;102944.53;;;4.25;100.00
66273;BME280;58450;52.150;4.466;2023-01-29T01:05:09;102948.44;;;4.19;100.00
66273;BME280;58450;52.150;4.466;2023-01-29T01:07:39;102948.91;;;4.11;100.00
66273;BME280;58450;52.150;4.466;2023-01-29T01:10:08;102953.22;;;4.28;100.00
66273;BME280;58450;52.150;4.466;2023-01-29T01:12:50;102958.56;;;4.28;100.00
66273;BME280;58450;52.150;4.466;2023-01-29T01:15:20;102961.84;;;4.18;100.00
66273;BME280;58450;52.150;4.466;2023-01-29T01:17:51;102958.56;;;4.28;100.00
66273;BME280;58450;52.150;4.466;2023-01-29T01:20:21;102953.78;;;4.19;100.00
66273;BME280;58450;52.150;4.466;2023-01-29T01:22:48;102955.22;;;4.39;100.00
66273;BME280;58450;52.150;4.466;2023-01-29T01:25:16;102961.03;;;4.46;100.00
66273;BME280;58450;52.150;4.466;2023-01-29T01:27:43;102955.88;;;4.43;100.00
66273;BME280;58450;52.150;4.466;2023-01-29T01:30:13;102961.91;;;4.47;100.00
66273;BME280;58450;52.150;4.466;2023-01-29T01:32:42;102967.13;;;4.34;100.00
66273;BME280;58450;52.150;4.466;2023-01-29T01:35:10;102970.38;;;4.39;100.00
66273;BME280;58450;52.150;4.466;2023-01-29T01:37:41;102967.91;;;4.36;100.00
66273;BME280;58450;52.150;4.466;2023-01-29T01:40:14;102969.03;;;4.46;100.00
66273;BME280;58450;52.150;4.466;2023-01-29T01:42:47;102957.81;;;4.41;100.00
66273;BME280;58450;52.150;4.466;2023-01-29T01:45:22;102960.38;;;4.42;100.00
66273;BME280;58450;52.150;4.466;2023-01-29T01:47:56;102958.38;;;4.01;100.00
66273;BME280;58450;52.150;4.466;2023-01-29T01:50:30;102953.44;;;3.95;100.00
66273;BME280;58450;52.150;4.466;2023-01-29T01:53:07;102960.16;;;4.31;100.00
66273;BME280;58450;52.150;4.466;2023-01-29T01:55:39;102953.81;;;4.34;100.00
66273;BME280;58450;52.150;4.466;2023-01-29T01:58:23;102945.50;;;4.38;100.00
66273;BME280;58450;52.150;4.466;2023-01-29T02:00:54;102948.81;;;4.42;100.00
66273;BME280;58450;52.150;4.466;2023-01-29T02:03:23;102940.75;;;4.29;100.00
66273;BME280;58450;52.150;4.466;2023-01-29T02:06:09;102940.66;;;4.31;100.00
66273;BME280;58450;52.150;4.466;2023-01-29T02:08:59;102938.06;;;4.29;100.00
66273;BME280;58450;52.150;4.466;2023-01-29T02:11:49;102928.47;;;4.41;100.00
66273;BME280;58450;52.150;4.466;2023-01-29T02:14:17;102927.50;;;4.42;100.00
66273;BME280;58450;52.150;4.466;2023-01-29T02:16:45;102939.78;;;4.30;100.00
66273;BME280;58450;52.150;4.466;2023-01-29T02:19:17;102940.66;;;4.45;100.00
66273;BME280;58450;52.150;4.466;2023-01-29T02:22:06;102944.94;;;4.48;100.00
66273;BME280;58450;52.150;4.466;2023-01-29T02:25:11;102949.22;;;4.36;100.00
66273;BME280;58450;52.150;4.466;2023-01-29T02:28:15;102946.38;;;4.39;100.00
66273;BME280;58450;52.150;4.466;2023-01-29T02:30:53;102950.53;;;4.43;100.00
66273;BME280;58450;52.150;4.466;2023-01-29T02:33:36;102948.09;;;4.40;100.00
66273;BME280;58450;52.150;4.466;2023-01-29T02:36:20;102961.31;;;4.41;100.00
66273;BME280;58450;52.150;4.466;2023-01-29T02:39:00;102952.94;;;4.48;100.00
66273;BME280;58450;52.150;4.466;2023-01-29T02:41:39;102946.56;;;4.50;100.00
66273;BME280;58450;52.150;4.466;2023-01-29T02:44:13;102939.69;;;4.46;100.00
66273;BME280;58450;52.150;4.466;2023-01-29T02:46:54;102933.78;;;4.12;100.00
66273;BME280;58450;52.150;4.466;2023-01-29T02:49:31;102936.13;;;4.02;100.00
66273;BME280;58450;52.150;4.466;2023-01-29T02:52:05;102934.03;;;4.07;100.00
66273;BME280;58450;52.150;4.466;2023-01-29T02:54:43;102931.84;;;3.99;100.00
66273;BME280;58450;52.150;4.466;2023-01-29T02:57:19;102924.25;;;4.08;100.00
66273;BME280;58450;52.150;4.466;2023-01-29T02:59:54;102929.00;;;4.03;100.00
66273;BME280;58450;52.150;4.466;2023-01-29T03:02:29;102921.00;;;4.03;100.00
66273;BME280;58450;52.150;4.466;2023-01-29T03:05:03;102922.31;;;3.95;100.00
66273;BME280;58450;52.150;4.466;2023-01-29T03:07:40;102927.84;;;3.92;100.00
66273;BME280;58450;52.150;4.466;2023-01-29T03:10:19;102924.72;;;4.14;100.00
66273;BME280;58450;52.150;4.466;2023-01-29T03:12:53;102919.59;;;4.26;100.00
66273;BME280;58450;52.150;4.466;2023-01-29T03:15:31;102923.91;;;4.28;100.00
66273;BME280;58450;52.150;4.466;2023-01-29T03:18:09;102918.75;;;4.25;100.00
66273;BME280;58450;52.150;4.466;2023-01-29T03:20:42;102918.06;;;4.22;100.00
66273;BME280;58450;52.150;4.466;2023-01-29T03:23:18;102912.75;;;4.22;100.00
66273;BME280;58450;52.150;4.466;2023-01-29T03:26:10;102896.47;;;4.12;100.00
66273;BME280;58450;52.150;4.466;2023-01-29T03:28:59;102899.22;;;3.96;100.00
66273;BME280;58450;52.150;4.466;2023-01-29T03:31:49;102900.47;;;4.05;100.00
66273;BME280;58450;52.150;4.466;2023-01-29T03:34:35;102901.03;;;4.10;100.00
66273;BME280;58450;52.150;4.466;2023-01-29T03:37:12;102912.44;;;3.97;100.00
66273;BME280;58450;52.150;4.466;2023-01-29T03:39:46;102905.28;;;3.98;100.00
66273;BME280;58450;52.150;4.466;2023-01-29T03:42:18;102907.94;;;3.98;100.00
66273;BME280;58450;52.150;4.466;2023-01-29T03:44:59;102895.31;;;4.02;100.00
66273;BME280;58450;52.150;4.466;2023-01-29T03:47:42;102893.41;;;4.04;100.00
66273;BME280;58450;52.150;4.466;2023-01-29T03:50:24;102898.09;;;4.14;100.00
66273;BME280;58450;52.150;4.466;2023-01-29T03:53:09;102877.91;;;4.10;100.00
66273;BME280;58450;52.150;4.466;2023-01-29T03:55:53;102883.53;;;4.06;100.00
66273;BME280;58450;52.150;4.466;2023-01-29T03:58:33;102882.19;;;3.98;100.00
66273;BME280;58450;52.150;4.466;2023-01-29T04:01:10;102885.13;;;4.08;100.00
66273;BME280;58450;52.150;4.466;2023-01-29T04:03:48;102883.81;;;4.16;100.00
66273;BME280;58450;52.150;4.466;2023-01-29T04:06:22;102887.78;;;4.08;100.00
66273;BME280;58450;52.150;4.466;2023-01-29T04:08:56;102884.09;;;4.11;100.00
66273;BME280;58450;52.150;4.466;2023-01-29T04:11:30;102882.09;;;4.14;100.00
66273;BME280;58450;52.150;4.466;2023-01-29T04:14:03;102873.53;;;4.09;100.00
66273;BME280;58450;52.150;4.466;2023-01-29T04:16:37;102866.88;;;4.17;100.00
66273;BME280;58450;52.150;4.466;2023-01-29T04:19:08;102871.72;;;4.10;100.00
66273;BME280;58450;52.150;4.466;2023-01-29T04:21:35;102872.69;;;4.09;100.00
66273;BME280;58450;52.150;4.466;2023-01-29T04:24:04;102873.53;;;4.09;100.00
66273;BME280;58450;52.150;4.466;2023-01-29T04:26:47;102875.72;;;4.17;100.00
66273;BME280;58450;52.150;4.466;2023-01-29T04:29:34;102863.06;;;4.21;100.00
66273;BME280;58450;52.150;4.466;2023-01-29T04:32:15;102859.75;;;4.17;100.00
66273;BME280;58450;52.150;4.466;2023-01-29T04:34:59;102852.88;;;4.13;100.00
66273;BME280;58450;52.150;4.466;2023-01-29T04:37:36;102844.59;;;4.18;100.00
66273;BME280;58450;52.150;4.466;2023-01-29T04:40:14;102848.03;;;4.20;100.00
66273;BME280;58450;52.150;4.466;2023-01-29T04:42:48;102844.91;;;4.27;100.00
66273;BME280;58450;52.150;4.466;2023-01-29T04:45:31;102846.59;;;4.28;100.00
66273;BME280;58450;52.150;4.466;2023-01-29T04:48:16;102840.41;;;4.28;100.00
66273;BME280;58450;52.150;4.466;2023-01-29T04:50:55;102832.72;;;4.23;100.00
66273;BME280;58450;52.150;4.466;2023-01-29T04:53:36;102833.66;;;4.22;100.00
66273;BME280;58450;52.150;4.466;2023-01-29T04:56:17;102838.31;;;4.19;100.00
66273;BME280;58450;52.150;4.466;2023-01-29T04:58:53;102840.31;;;4.15;100.00
66273;BME280;58450;52.150;4.466;2023-01-29T05:01:27;102835.06;;;4.13;100.00
66273;BME280;58450;52.150;4.466;2023-01-29T05:03:59;102832.22;;;4.17;100.00
66273;BME280;58450;52.150;4.466;2023-01-29T05:06:31;102834.69;;;4.05;100.00
66273;BME280;58450;52.150;4.466;2023-01-29T05:09:00;102837.94;;;4.10;100.00
66273;BME280;58450;52.150;4.466;2023-01-29T05:11:29;102831.56;;;3.98;100.00
66273;BME280;58450;52.150;4.466;2023-01-29T05:14:01;102827.94;;;3.99;100.00
66273;BME280;58450;52.150;4.466;2023-01-29T05:16:36;102823.88;;;3.94;100.00
66273;BME280;58450;52.150;4.466;2023-01-29T05:19:08;102826.13;;;4.00;100.00
66273;BME280;58450;52.150;4.466;2023-01-29T05:21:40;102819.19;;;3.97;100.00
66273;BME280;58450;52.150;4.466;2023-01-29T05:24:12;102811.78;;;4.03;100.00
66273;BME280;58450;52.150;4.466;2023-01-29T05:26:42;102796.75;;;4.02;100.00
66273;BME280;58450;52.150;4.466;2023-01-29T05:29:29;102798.53;;;4.16;100.00
66273;BME280;58450;52.150;4.466;2023-01-29T05:31:57;102791.22;;;4.19;100.00
66273;BME280;58450;52.150;4.466;2023-01-29T05:34:25;102802.53;;;4.08;100.00
66273;BME280;58450;52.150;4.466;2023-01-29T05:36:54;102799.78;;;4.10;100.00
66273;BME280;58450;52.150;4.466;2023-01-29T05:39:21;102800.53;;;4.12;100.00
66273;BME280;58450;52.150;4.466;2023-01-29T05:41:49;102807.41;;;4.16;100.00
66273;BME280;58450;52.150;4.466;2023-01-29T05:44:16;102807.47;;;4.14;100.00
66273;BME280;58450;52.150;4.466;2023-01-29T05:46:44;102806.34;;;4.19;100.00
66273;BME280;58450;52.150;4.466;2023-01-29T05:49:11;102808.25;;;4.17;100.00
66273;BME280;58450;52.150;4.466;2023-01-29T05:51:39;102804.53;;;4.19;100.00
66273;BME280;58450;52.150;4.466;2023-01-29T05:54:10;102811.09;;;4.13;100.00
66273;BME280;58450;52.150;4.466;2023-01-29T05:56:38;102814.13;;;4.22;100.00
66273;BME280;58450;52.150;4.466;2023-01-29T05:59:05;102811.47;;;4.22;100.00
66273;BME280;58450;52.150;4.466;2023-01-29T06:01:33;102802.81;;;4.33;100.00
66273;BME280;58450;52.150;4.466;2023-01-29T06:04:00;102797.56;;;4.31;100.00
66273;BME280;58450;52.150;4.466;2023-01-29T06:06:28;102788.63;;;4.32;100.00
66273;BME280;58450;52.150;4.466;2023-01-29T06:08:55;102792.81;;;4.22;100.00
66273;BME280;58450;52.150;4.466;2023-01-29T06:11:24;102784.38;;;4.15;100.00
66273;BME280;58450;52.150;4.466;2023-01-29T06:13:52;102787.78;;;4.32;100.00
66273;BME280;58450;52.150;4.466;2023-01-29T06:16:19;102771.19;;;4.41;100.00
66273;BME280;58450;52.150;4.466;2023-01-29T06:18:47;102772.44;;;4.21;100.00
66273;BME280;58450;52.150;4.466;2023-01-29T06:21:14;102773.00;;;4.26;100.00
66273;BME280;58450;52.150;4.466;2023-01-29T06:23:42;102775.97;;;4.36;100.00
66273;BME280;58450;52.150;4.466;2023-01-29T06:26:11;102775.00;;;4.37;100.00
66273;BME280;58450;52.150;4.466;2023-01-29T06:28:42;102777.88;;;4.34;100.00
66273;BME280;58450;52.150;4.466;2023-01-29T06:31:10;102773.00;;;4.26;100.00
66273;BME280;58450;52.150;4.466;2023-01-29T06:33:38;102770.84;;;4.33;100.00
66273;BME280;58450;52.150;4.466;2023-01-29T06:36:06;102768.25;;;4.31;100.00
66273;BME280;58450;52.150;4.466;2023-01-29T06:38:34;102767.78;;;4.39;100.00
66273;BME280;58450;52.150;4.466;2023-01-29T06:41:07;102754.91;;;4.31;100.00
66273;BME280;58450;52.150;4.466;2023-01-29T06:43:36;102755.69;;;4.33;100.00
66273;BME280;58450;52.150;4.466;2023-01-29T06:46:06;102764.53;;;4.34;100.00
66273;BME280;58450;52.150;4.466;2023-01-29T06:48:34;102761.38;;;4.41;100.00
66273;BME280;58450;52.150;4.466;2023-01-29T06:51:03;102765.50;;;4.33;100.00
66273;BME280;58450;52.150;4.466;2023-01-29T06:53:32;102753.69;;;4.37;100.00
66273;BME280;58450;52.150;4.466;2023-01-29T06:56:00;102752.97;;;4.48;100.00
66273;BME280;58450;52.150;4.466;2023-01-29T06:58:28;102750.72;;;4.41;100.00
66273;BME280;58450;52.150;4.466;2023-01-29T07:01:02;102754.88;;;4.46;100.00
66273;BME280;58450;52.150;4.466;2023-01-29T07:03:31;102759.34;;;4.45;100.00
66273;BME280;58450;52.150;4.466;2023-01-29T07:05:59;102757.00;;;4.40;100.00
66273;BME280;58450;52.150;4.466;2023-01-29T07:08:27;102758.25;;;4.35;100.00
66273;BME280;58450;52.150;4.466;2023-01-29T07:10:57;102757.88;;;4.41;100.00
66273;BME280;58450;52.150;4.466;2023-01-29T07:13:26;102756.59;;;4.47;100.00
66273;BME280;58450;52.150;4.466;2023-01-29T07:15:56;102760.94;;;4.35;100.00
66273;BME280;58450;52.150;4.466;2023-01-29T07:18:25;102761.56;;;4.38;100.00
66273;BME280;58450;52.150;4.466;2023-01-29T07:20:55;102772.63;;;4.32;100.00
66273;BME280;58450;52.150;4.466;2023-01-29T07:23:23;102770.72;;;4.34;100.00
66273;BME280;58450;52.150;4.466;2023-01-29T07:25:51;102778.72;;;4.34;100.00
66273;BME280;58450;52.150;4.466;2023-01-29T07:28:18;102769.19;;;4.30;100.00
66273;BME280;58450;52.150;4.466;2023-01-29T07:30:46;102773.56;;;4.31;100.00
66273;BME280;58450;52.150;4.466;2023-01-29T07:33:14;102771.03;;;4.29;100.00
66273;BME280;58450;52.150;4.466;2023-01-29T07:35:42;102765.38;;;4.34;100.00
66273;BME280;58450;52.150;4.466;2023-01-29T07:38:11;102766.66;;;4.28;100.00
66273;BME280;58450;52.150;4.466;2023-01-29T07:40:38;102751.97;;;4.36;100.00
66273;BME280;58450;52.150;4.466;2023-01-29T07:43:06;102756.25;;;4.38;100.00
66273;BME280;58450;52.150;4.466;2023-01-29T07:45:38;102761.97;;;4.32;100.00
66273;BME280;58450;52.150;4.466;2023-01-29T07:48:08;102754.28;;;4.27;100.00
66273;BME280;58450;52.150;4.466;2023-01-29T07:50:38;102763.69;;;4.19;100.00
66273;BME280;58450;52.150;4.466;2023-01-29T07:53:13;102742.53;;;4.30;100.00
66273;BME280;58450;52.150;4.466;2023-01-29T07:55:43;102745.56;;;4.38;100.00
66273;BME280;58450;52.150;4.466;2023-01-29T07:58:11;102746.44;;;4.39;100.00
66273;BME280;58450;52.150;4.466;2023-01-29T08:00:38;102740.44;;;4.35;100.00
66273;BME280;58450;52.150;4.466;2023-01-29T08:03:11;102746.13;;;4.43;100.00
66273;BME280;58450;52.150;4.466;2023-01-29T08:05:41;102747.72;;;4.46;100.00
66273;BME280;58450;52.150;4.466;2023-01-29T08:08:09;102745.22;;;4.57;100.00
66273;BME280;58450;52.150;4.466;2023-01-29T08:10:38;102730.09;;;4.58;100.00
66273;BME280;58450;52.150;4.466;2023-01-29T08:13:07;102736.97;;;4.48;100.00
66273;BME280;58450;52.150;4.466;2023-01-29T08:15:35;102717.16;;;4.52;100.00
66273;BME280;58450;52.150;4.466;2023-01-29T08:18:03;102728.78;;;4.51;100.00
66273;BME280;58450;52.150;4.466;2023-01-29T08:20:30;102737.22;;;4.57;100.00
66273;BME280;58450;52.150;4.466;2023-01-29T08:22:59;102724.22;;;4.53;100.00
66273;BME280;58450;52.150;4.466;2023-01-29T08:25:27;102718.13;;;4.51;100.00
66273;BME280;58450;52.150;4.466;2023-01-29T08:27:57;102720.66;;;4.52;100.00
66273;BME280;58450;52.150;4.466;2023-01-29T08:30:26;102726.00;;;4.52;100.00
66273;BME280;58450;52.150;4.466;2023-01-29T08:32:54;102706.38;;;4.53;100.00
66273;BME280;58450;52.150;4.466;2023-01-29T08:35:22;102716.22;;;4.53;100.00
66273;BME280;58450;52.150;4.466;2023-01-29T08:37:53;102713.78;;;4.63;100.00
66273;BME280;58450;52.150;4.466;2023-01-29T08:40:23;102716.78;;;4.71;100.00
66273;BME280;58450;52.150;4.466;2023-01-29T08:42:51;102711.78;;;4.66;100.00
66273;BME280;58450;52.150;4.466;2023-01-29T08:45:19;102715.81;;;4.59;100.00
66273;BME280;58450;52.150;4.466;2023-01-29T08:47:48;102721.28;;;4.70;100.00
66273;BME280;58450;52.150;4.466;2023-01-29T08:50:16;102722.91;;;4.86;100.00
66273;BME280;58450;52.150;4.466;2023-01-29T08:52:44;102712.56;;;4.81;100.00
66273;BME280;58450;52.150;4.466;2023-01-29T08:55:12;102703.28;;;4.87;100.00
66273;BME280;58450;52.150;4.466;2023-01-29T08:57:40;102693.88;;;4.81;100.00
66273;BME280;58450;52.150;4.466;2023-01-29T09:00:09;102697.72;;;4.90;100.00
66273;BME280;58450;52.150;4.466;2023-01-29T09:02:38;102707.03;;;4.84;100.00
66273;BME280;58450;52.150;4.466;2023-01-29T09:05:07;102713.31;;;4.83;100.00
66273;BME280;58450;52.150;4.466;2023-01-29T09:07:35;102706.94;;;4.99;100.00
66273;BME280;58450;52.150;4.466;2023-01-29T09:10:03;102702.31;;;4.88;100.00
66273;BME280;58450;52.150;4.466;2023-01-29T09:12:32;102698.50;;;4.92;100.00
66273;BME280;58450;52.150;4.466;2023-01-29T09:14:59;102689.94;;;4.87;100.00
66273;BME280;58450;52.150;4.466;2023-01-29T09:17:27;102691.34;;;5.06;100.00
66273;BME280;58450;52.150;4.466;2023-01-29T09:19:56;102689.09;;;4.86;100.00
66273;BME280;58450;52.150;4.466;2023-01-29T09:22:24;102691.03;;;4.97;100.00
66273;BME280;58450;52.150;4.466;2023-01-29T09:24:51;102684.31;;;5.05;100.00
66273;BME280;58450;52.150;4.466;2023-01-29T09:27:19;102685.25;;;4.91;100.00
66273;BME280;58450;52.150;4.466;2023-01-29T09:29:46;102696.56;;;4.94;100.00
66273;BME280;58450;52.150;4.466;2023-01-29T09:32:14;102700.94;;;4.95;100.00
66273;BME280;58450;52.150;4.466;2023-01-29T09:34:42;102689.63;;;4.92;100.00
66273;BME280;58450;52.150;4.466;2023-01-29T09:37:10;102694.56;;;4.98;100.00
66273;BME280;58450;52.150;4.466;2023-01-29T09:39:38;102687.63;;;5.08;100.00
66273;BME280;58450;52.150;4.466;2023-01-29T09:42:09;102706.53;;;5.05;100.00
66273;BME280;58450;52.150;4.466;2023-01-29T09:44:50;102697.78;;;5.16;100.00
66273;BME280;58450;52.150;4.466;2023-01-29T09:47:27;102695.84;;;5.18;100.00
66273;BME280;58450;52.150;4.466;2023-01-29T09:50:00;102690.31;;;5.08;100.00
66273;BME280;58450;52.150;4.466;2023-01-29T09:52:35;102690.19;;;5.10;100.00
66273;BME280;58450;52.150;4.466;2023-01-29T09:55:11;102681.84;;;5.01;100.00
66273;BME280;58450;52.150;4.466;2023-01-29T09:57:50;102685.06;;;5.07;100.00
66273;BME280;58450;52.150;4.466;2023-01-29T10:00:24;102688.34;;;4.97;100.00
66273;BME280;58450;52.150;4.466;2023-01-29T10:03:25;102685.91;;;4.94;100.00
66273;BME280;58450;52.150;4.466;2023-01-29T10:06:18;102684.44;;;5.16;100.00
66273;BME280;58450;52.150;4.466;2023-01-29T10:12:43;102667.25;;;5.20;100.00
66273;BME280;58450;52.150;4.466;2023-01-29T10:15:32;102675.16;;;5.22;100.00
66273;BME280;58450;52.150;4.466;2023-01-29T10:18:29;102665.97;;;5.13;100.00
66273;BME280;58450;52.150;4.466;2023-01-29T10:21:13;102667.34;;;5.06;100.00
66273;BME280;58450;52.150;4.466;2023-01-29T10:23:53;102656.78;;;5.04;100.00
66273;BME280;58450;52.150;4.466;2023-01-29T10:26:28;102654.88;;;5.06;100.00
66273;BME280;58450;52.150;4.466;2023-01-29T10:29:00;102662.75;;;5.08;100.00
66273;BME280;58450;52.150;4.466;2023-01-29T10:31:32;102663.19;;;5.01;100.00
66273;BME280;58450;52.150;4.466;2023-01-29T10:34:09;102658.16;;;5.10;100.00
66273;BME280;58450;52.150;4.466;2023-01-29T10:36:44;102659.78;;;5.12;100.00
66273;BME280;58450;52.150;4.466;2023-01-29T10:39:15;102647.72;;;4.94;100.00
66273;BME280;58450;52.150;4.466;2023-01-29T10:41:57;102637.66;;;4.97;100.00
66273;BME280;58450;52.150;4.466;2023-01-29T10:44:43;102636.72;;;5.11;100.00
66273;BME280;58450;52.150;4.466;2023-01-29T10:47:40;102632.66;;;5.06;100.00
66273;BME280;58450;52.150;4.466;2023-01-29T10:50:51;102639.16;;;4.88;100.00
66273;BME280;58450;52.150;4.466;2023-01-29T10:53:41;102624.66;;;4.93;100.00
66273;BME280;58450;52.150;4.466;2023-01-29T10:56:31;102624.66;;;5.06;100.00
66273;BME280;58450;52.150;4.466;2023-01-29T10:59:29;102627.31;;;5.06;100.00
66273;BME280;58450;52.150;4.466;2023-01-29T11:02:13;102629.03;;;5.07;100.00
66273;BME280;58450;52.150;4.466;2023-01-29T11:04:43;102627.66;;;5.01;100.00
66273;BME280;58450;52.150;4.466;2023-01-29T11:07:12;102622.41;;;5.12;100.00
66273;BME280;58450;52.150;4.466;2023-01-29T11:09:45;102614.84;;;5.06;100.00
66273;BME280;58450;52.150;4.466;2023-01-29T11:12:26;102626.06;;;5.11;100.00
66273;BME280;58450;52.150;4.466;2023-01-29T11:15:00;102615.81;;;5.05;100.00
66273;BME280;58450;52.150;4.466;2023-01-29T11:17:31;102621.97;;;5.06;100.00
66273;BME280;58450;52.150;4.466;2023-01-29T11:19:59;102615.25;;;5.00;100.00
66273;BME280;58450;52.150;4.466;2023-01-29T11:22:27;102609.50;;;5.06;100.00
66273;BME280;58450;52.150;4.466;2023-01-29T11:25:08;102606.63;;;5.09;100.00
66273;BME280;58450;52.150;4.466;2023-01-29T11:27:44;102602.13;;;4.97;100.00
66273;BME280;58450;52.150;4.466;2023-01-29T11:30:20;102587.06;;;5.09;100.00
66273;BME280;58450;52.150;4.466;2023-01-29T11:32:57;102591.44;;;5.10;100.00
66273;BME280;58450;52.150;4.466;2023-01-29T11:35:34;102586.34;;;5.20;100.00
66273;BME280;58450;52.150;4.466;2023-01-29T11:38:17;102581.44;;;5.13;100.00
66273;BME280;58450;52.150;4.466;2023-01-29T11:40:48;102587.81;;;5.11;100.00
66273;BME280;58450;52.150;4.466;2023-01-29T11:43:27;102580.44;;;5.27;100.00
66273;BME280;58450;52.150;4.466;2023-01-29T11:46:00;102582.69;;;5.33;100.00
66273;BME280;58450;52.150;4.466;2023-01-29T11:48:39;102571.47;;;5.28;100.00
66273;BME280;58450;52.150;4.466;2023-01-29T11:51:11;102574.03;;;5.30;100.00
66273;BME280;58450;52.150;4.466;2023-01-29T11:53:50;102568.63;;;4.93;100.00
66273;BME280;58450;52.150;4.466;2023-01-29T11:56:21;102570.22;;;4.82;100.00
66273;BME280;58450;52.150;4.466;2023-01-29T11:58:56;102556.25;;;4.92;100.00
66273;BME280;58450;52.150;4.466;2023-01-29T12:01:30;102563.84;;;4.85;100.00
66273;BME280;58450;52.150;4.466;2023-01-29T12:04:00;102538.19;;;4.95;100.00
66273;BME280;58450;52.150;4.466;2023-01-29T12:06:33;102536.59;;;5.06;100.00
66273;BME280;58450;52.150;4.466;2023-01-29T12:09:12;102531.69;;;4.99;100.00
66273;BME280;58450;52.150;4.466;2023-01-29T12:11:43;102524.84;;;5.08;100.00
66273;BME280;58450;52.150;4.466;2023-01-29T12:14:23;102526.72;;;5.32;100.00
66273;BME280;58450;52.150;4.466;2023-01-29T12:17:03;102499.78;;;5.35;100.00
66273;BME280;58450;52.150;4.466;2023-01-29T12:19:38;102512.91;;;5.38;100.00
66273;BME280;58450;52.150;4.466;2023-01-29T12:22:15;102511.84;;;5.41;100.00
66273;BME280;58450;52.150;4.466;2023-01-29T12:24:49;102509.69;;;5.46;100.00
66273;BME280;58450;52.150;4.466;2023-01-29T12:27:26;102498.72;;;5.38;100.00
66273;BME280;58450;52.150;4.466;2023-01-29T12:30:06;102488.16;;;5.36;100.00
66273;BME280;58450;52.150;4.466;2023-01-29T12:32:48;102484.53;;;5.61;100.00
66273;BME280;58450;52.150;4.466;2023-01-29T12:35:24;102492.50;;;5.50;100.00
66273;BME280;58450;52.150;4.466;2023-01-29T12:38:00;102495.03;;;5.52;100.00
66273;BME280;58450;52.150;4.466;2023-01-29T12:40:36;102492.28;;;5.53;100.00
66273;BME280;58450;52.150;4.466;2023-01-29T12:43:14;102482.25;;;5.44;100.00
66273;BME280;58450;52.150;4.466;2023-01-29T12:45:47;102463.16;;;5.37;100.00
66273;BME280;58450;52.150;4.466;2023-01-29T12:48:23;102465.94;;;5.36;100.00
66273;BME280;58450;52.150;4.466;2023-01-29T12:50:54;102451.25;;;5.54;100.00
66273;BME280;58450;52.150;4.466;2023-01-29T12:53:33;102445.25;;;5.51;100.00
66273;BME280;58450;52.150;4.466;2023-01-29T12:56:09;102427.44;;;5.51;100.00
66273;BME280;58450;52.150;4.466;2023-01-29T12:58:43;102439.25;;;5.36;100.00
66273;BME280;58450;52.150;4.466;2023-01-29T13:01:16;102432.38;;;5.44;100.00
66273;BME280;58450;52.150;4.466;2023-01-29T13:03:54;102417.00;;;5.48;100.00
66273;BME280;58450;52.150;4.466;2023-01-29T13:06:28;102414.31;;;5.48;100.00
66273;BME280;58450;52.150;4.466;2023-01-29T13:09:02;102425.75;;;5.50;100.00
66273;BME280;58450;52.150;4.466;2023-01-29T13:11:35;102401.75;;;5.37;100.00
66273;BME280;58450;52.150;4.466;2023-01-29T13:14:13;102396.19;;;5.40;100.00
66273;BME280;58450;52.150;4.466;2023-01-29T13:16:50;102392.50;;;5.54;100.00
66273;BME280;58450;52.150;4.466;2023-01-29T13:19:27;102374.06;;;5.62;100.00
66273;BME280;58450;52.150;4.466;2023-01-29T13:22:01;102383.13;;;5.48;100.00
66273;BME280;58450;52.150;4.466;2023-01-29T13:24:38;102370.97;;;5.44;100.00
66273;BME280;58450;52.150;4.466;2023-01-29T13:27:19;102354.00;;;5.57;100.00
66273;BME280;58450;52.150;4.466;2023-01-29T13:29:50;102368.84;;;5.61;100.00